sensor_id;sensor_type;location;lat;lon;timestamp;P1;durP1;ratioP1;P2;durP2;ratioP2
32321;SDS011;61553;48.994;8.940;2022-08-19T00:01:50;17.60;;;14.65;;
32321;SDS011;61553;48.994;8.940;2022-08-19T00:04:17;18.73;;;15.07;;
32321;SDS011;61553;48.994;8.940;2022-08-19T00:06:46;17.25;;;14.75;;
32321;SDS011;61553;48.994;8.940;2022-08-19T00:09:12;18.85;;;15.70;;
32321;SDS011;61553;48.994;8.940;2022-08-19T00:11:40;18.83;;;16.00;;
32321;SDS011;61553;48.994;8.940;2022-08-19T00:14:06;22.40;;;15.95;;
32321;SDS011;61553;48.994;8.940;2022-08-19T00:16:35;20.42;;;16.48;;
32321;SDS011;61553;48.994;8.940;2022-08-19T00:19:02;18.80;;;15.95;;
32321;SDS011;61553;48.994;8.940;2022-08-19T00:21:28;20.40;;;14.68;;
32321;SDS011;61553;48.994;8.940;2022-08-19T00:23:55;20.15;;;15.50;;
32321;SDS011;61553;48.994;8.940;2022-08-19T00:26:25;21.65;;;16.83;;
32321;SDS011;61553;48.994;8.940;2022-08-19T00:28:51;17.10;;;14.95;;
32321;SDS011;61553;48.994;8.940;2022-08-19T00:31:17;19.48;;;15.32;;
32321;SDS011;61553;48.994;8.940;2022-08-19T00:33:43;21.02;;;15.80;;
32321;SDS011;61553;48.994;8.940;2022-08-19T00:36:11;20.63;;;15.85;;
32321;SDS011;61553;48.994;8.940;2022-08-19T00:38:38;22.02;;;15.88;;
32321;SDS011;61553;48.994;8.940;2022-08-19T00:41:08;20.73;;;16.52;;
32321;SDS011;61553;48.994;8.940;2022-08-19T00:43:39;20.98;;;16.08;;
32321;SDS011;61553;48.994;8.940;2022-08-19T00:46:06;21.85;;;16.15;;
32321;SDS011;61553;48.994;8.940;2022-08-19T00:48:33;19.05;;;16.10;;
32321;SDS011;61553;48.994;8.940;2022-08-19T00:50:59;20.95;;;14.90;;
32321;SDS011;61553;48.994;8.940;2022-08-19T00:53:26;19.85;;;16.35;;
32321;SDS011;61553;48.994;8.940;2022-08-19T00:55:56;20.23;;;15.15;;
32321;SDS011;61553;48.994;8.940;2022-08-19T00:58:27;19.45;;;15.40;;
32321;SDS011;61553;48.994;8.940;2022-08-19T01:00:57;19.38;;;14.48;;
32321;SDS011;61553;48.994;8.940;2022-08-19T01:03:23;21.35;;;15.35;;
32321;SDS011;61553;48.994;8.940;2022-08-19T01:05:49;20.17;;;16.25;;
32321;SDS011;61553;48.994;8.940;2022-08-19T01:08:17;21.92;;;16.50;;
32321;SDS011;61553;48.994;8.940;2022-08-19T01:10:45;21.63;;;16.73;;
32321;SDS011;61553;48.994;8.940;2022-08-19T01:13:17;19.83;;;15.77;;
32321;SDS011;61553;48.994;8.940;2022-08-19T01:15:49;20.80;;;16.10;;
32321;SDS011;61553;48.994;8.940;2022-08-19T01:18:19;22.05;;;16.35;;
32321;SDS011;61553;48.994;8.940;2022-08-19T01:20:46;21.50;;;15.88;;
32321;SDS011;61553;48.994;8.940;2022-08-19T01:23:13;23.65;;;17.35;;
32321;SDS011;61553;48.994;8.940;2022-08-19T01:25:47;20.73;;;16.80;;
32321;SDS011;61553;48.994;8.940;2022-08-19T01:28:17;24.80;;;17.50;;
32321;SDS011;61553;48.994;8.940;2022-08-19T01:30:44;21.35;;;16.58;;
32321;SDS011;61553;48.994;8.940;2022-08-19T01:33:11;19.42;;;15.60;;
32321;SDS011;61553;48.994;8.940;2022-08-19T01:35:37;23.60;;;16.60;;
32321;SDS011;61553;48.994;8.940;2022-08-19T01:38:04;22.45;;;17.65;;
32321;SDS011;61553;48.994;8.940;2022-08-19T01:40:33;24.27;;;18.65;;
32321;SDS011;61553;48.994;8.940;2022-08-19T01:43:00;24.05;;;18.80;;
32321;SDS011;61553;48.994;8.940;2022-08-19T01:45:26;24.60;;;19.73;;
32321;SDS011;61553;48.994;8.940;2022-08-19T01:47:54;25.27;;;18.65;;
32321;SDS011;61553;48.994;8.940;2022-08-19T01:50:20;26.55;;;19.52;;
32321;SDS011;61553;48.994;8.940;2022-08-19T01:52:47;25.50;;;19.00;;
32321;SDS011;61553;48.994;8.940;2022-08-19T01:55:14;28.08;;;18.98;;
32321;SDS011;61553;48.994;8.940;2022-08-19T01:57:43;24.90;;;18.52;;
32321;SDS011;61553;48.994;8.940;2022-08-19T02:00:13;27.13;;;20.55;;
32321;SDS011;61553;48.994;8.940;2022-08-19T02:02:41;24.90;;;18.98;;
32321;SDS011;61553;48.994;8.940;2022-08-19T02:05:07;26.23;;;19.58;;
32321;SDS011;61553;48.994;8.940;2022-08-19T02:07:34;27.65;;;19.27;;
32321;SDS011;61553;48.994;8.940;2022-08-19T02:10:05;24.38;;;19.48;;
32321;SDS011;61553;48.994;8.940;2022-08-19T02:12:33;22.83;;;18.48;;
32321;SDS011;61553;48.994;8.940;2022-08-19T02:14:58;27.35;;;19.45;;
32321;SDS011;61553;48.994;8.940;2022-08-19T02:17:26;27.77;;;20.83;;
32321;SDS011;61553;48.994;8.940;2022-08-19T02:19:53;26.75;;;20.38;;
32321;SDS011;61553;48.994;8.940;2022-08-19T02:22:19;31.73;;;21.88;;
32321;SDS011;61553;48.994;8.940;2022-08-19T02:24:45;27.40;;;20.98;;
32321;SDS011;61553;48.994;8.940;2022-08-19T02:27:13;29.98;;;22.33;;
32321;SDS011;61553;48.994;8.940;2022-08-19T02:29:39;27.75;;;21.38;;
32321;SDS011;61553;48.994;8.940;2022-08-19T02:32:04;26.52;;;20.92;;
32321;SDS011;61553;48.994;8.940;2022-08-19T02:34:30;28.35;;;20.75;;
32321;SDS011;61553;48.994;8.940;2022-08-19T02:36:56;25.50;;;21.20;;
32321;SDS011;61553;48.994;8.940;2022-08-19T02:39:21;28.85;;;20.73;;
32321;SDS011;61553;48.994;8.940;2022-08-19T02:41:47;28.65;;;22.75;;
32321;SDS011;61553;48.994;8.940;2022-08-19T02:44:14;27.75;;;22.30;;
32321;SDS011;61553;48.994;8.940;2022-08-19T02:46:40;28.33;;;21.95;;
32321;SDS011;61553;48.994;8.940;2022-08-19T02:49:06;29.63;;;21.13;;
32321;SDS011;61553;48.994;8.940;2022-08-19T02:51:34;29.38;;;22.05;;
32321;SDS011;61553;48.994;8.940;2022-08-19T02:54:01;29.38;;;23.27;;
32321;SDS011;61553;48.994;8.940;2022-08-19T02:56:28;27.88;;;21.45;;
32321;SDS011;61553;48.994;8.940;2022-08-19T02:58:54;29.20;;;22.63;;
32321;SDS011;61553;48.994;8.940;2022-08-19T03:01:25;29.05;;;22.52;;
32321;SDS011;61553;48.994;8.940;2022-08-19T03:03:56;28.75;;;22.10;;
32321;SDS011;61553;48.994;8.940;2022-08-19T03:06:24;31.80;;;22.95;;
32321;SDS011;61553;48.994;8.940;2022-08-19T03:08:50;29.73;;;22.90;;
32321;SDS011;61553;48.994;8.940;2022-08-19T03:11:23;27.15;;;21.88;;
32321;SDS011;61553;48.994;8.940;2022-08-19T03:13:51;33.95;;;25.48;;
32321;SDS011;61553;48.994;8.940;2022-08-19T03:16:18;29.20;;;22.92;;
32321;SDS011;61553;48.994;8.940;2022-08-19T03:18:46;30.42;;;24.85;;
32321;SDS011;61553;48.994;8.940;2022-08-19T03:21:20;29.35;;;24.55;;
32321;SDS011;61553;48.994;8.940;2022-08-19T03:23:48;29.73;;;23.58;;
32321;SDS011;61553;48.994;8.940;2022-08-19T03:26:15;28.60;;;22.58;;
32321;SDS011;61553;48.994;8.940;2022-08-19T03:28:41;28.40;;;23.13;;
32321;SDS011;61553;48.994;8.940;2022-08-19T03:31:09;30.92;;;24.95;;
32321;SDS011;61553;48.994;8.940;2022-08-19T03:33:37;32.05;;;25.00;;
32321;SDS011;61553;48.994;8.940;2022-08-19T03:36:08;30.13;;;24.27;;
32321;SDS011;61553;48.994;8.940;2022-08-19T03:38:41;33.22;;;26.63;;
32321;SDS011;61553;48.994;8.940;2022-08-19T03:41:10;31.42;;;25.13;;
32321;SDS011;61553;48.994;8.940;2022-08-19T03:43:39;35.17;;;25.92;;
32321;SDS011;61553;48.994;8.940;2022-08-19T03:46:08;31.23;;;25.02;;
32321;SDS011;61553;48.994;8.940;2022-08-19T03:48:36;27.95;;;23.83;;
32321;SDS011;61553;48.994;8.940;2022-08-19T03:51:03;30.77;;;24.90;;
32321;SDS011;61553;48.994;8.940;2022-08-19T03:53:30;32.08;;;25.50;;
32321;SDS011;61553;48.994;8.940;2022-08-19T03:55:56;30.92;;;25.65;;
32321;SDS011;61553;48.994;8.940;2022-08-19T03:58:25;32.10;;;24.83;;
32321;SDS011;61553;48.994;8.940;2022-08-19T04:00:53;31.23;;;23.45;;
32321;SDS011;61553;48.994;8.940;2022-08-19T04:03:18;27.38;;;24.33;;
32321;SDS011;61553;48.994;8.940;2022-08-19T04:05:44;29.27;;;24.45;;
32321;SDS011;61553;48.994;8.940;2022-08-19T04:08:11;29.27;;;24.23;;
32321;SDS011;61553;48.994;8.940;2022-08-19T04:10:38;28.00;;;24.08;;
32321;SDS011;61553;48.994;8.940;2022-08-19T04:13:04;31.88;;;25.55;;
32321;SDS011;61553;48.994;8.940;2022-08-19T04:15:31;33.35;;;26.33;;
32321;SDS011;61553;48.994;8.940;2022-08-19T04:18:00;29.15;;;24.40;;
32321;SDS011;61553;48.994;8.940;2022-08-19T04:20:26;30.55;;;26.05;;
32321;SDS011;61553;48.994;8.940;2022-08-19T04:22:52;31.27;;;23.92;;
32321;SDS011;61553;48.994;8.940;2022-08-19T04:25:18;31.23;;;25.58;;
32321;SDS011;61553;48.994;8.940;2022-08-19T04:27:43;32.85;;;25.77;;
32321;SDS011;61553;48.994;8.940;2022-08-19T04:30:11;32.88;;;26.00;;
32321;SDS011;61553;48.994;8.940;2022-08-19T04:32:38;33.45;;;26.10;;
32321;SDS011;61553;48.994;8.940;2022-08-19T04:35:04;30.52;;;26.02;;
32321;SDS011;61553;48.994;8.940;2022-08-19T04:37:30;29.92;;;25.75;;
32321;SDS011;61553;48.994;8.940;2022-08-19T04:39:58;33.17;;;25.63;;
32321;SDS011;61553;48.994;8.940;2022-08-19T04:42:43;34.10;;;26.33;;
32321;SDS011;61553;48.994;8.940;2022-08-19T04:45:12;33.00;;;26.75;;
32321;SDS011;61553;48.994;8.940;2022-08-19T04:47:40;35.22;;;27.48;;
32321;SDS011;61553;48.994;8.940;2022-08-19T04:50:07;34.50;;;27.02;;
32321;SDS011;61553;48.994;8.940;2022-08-19T04:52:36;29.80;;;25.20;;
32321;SDS011;61553;48.994;8.940;2022-08-19T04:55:07;32.35;;;26.55;;
32321;SDS011;61553;48.994;8.940;2022-08-19T04:57:34;30.10;;;25.17;;
32321;SDS011;61553;48.994;8.940;2022-08-19T05:00:00;32.83;;;26.23;;
32321;SDS011;61553;48.994;8.940;2022-08-19T05:02:26;33.55;;;26.83;;
32321;SDS011;61553;48.994;8.940;2022-08-19T05:04:57;29.88;;;26.60;;
32321;SDS011;61553;48.994;8.940;2022-08-19T05:07:25;33.58;;;27.13;;
32321;SDS011;61553;48.994;8.940;2022-08-19T05:09:51;31.00;;;25.90;;
32321;SDS011;61553;48.994;8.940;2022-08-19T05:12:17;34.17;;;24.80;;
32321;SDS011;61553;48.994;8.940;2022-08-19T05:14:44;35.95;;;27.42;;
32321;SDS011;61553;48.994;8.940;2022-08-19T05:17:11;36.08;;;27.42;;
32321;SDS011;61553;48.994;8.940;2022-08-19T05:19:37;34.10;;;27.65;;
32321;SDS011;61553;48.994;8.940;2022-08-19T05:22:26;29.48;;;25.20;;
32321;SDS011;61553;48.994;8.940;2022-08-19T05:25:00;34.78;;;26.98;;
32321;SDS011;61553;48.994;8.940;2022-08-19T05:27:28;33.75;;;26.27;;
32321;SDS011;61553;48.994;8.940;2022-08-19T05:29:54;33.22;;;27.38;;
32321;SDS011;61553;48.994;8.940;2022-08-19T05:32:20;30.13;;;25.88;;
32321;SDS011;61553;48.994;8.940;2022-08-19T05:34:46;31.75;;;27.73;;
32321;SDS011;61553;48.994;8.940;2022-08-19T05:37:12;32.97;;;26.20;;
32321;SDS011;61553;48.994;8.940;2022-08-19T05:39:37;31.17;;;25.92;;
32321;SDS011;61553;48.994;8.940;2022-08-19T05:42:07;35.45;;;26.40;;
32321;SDS011;61553;48.994;8.940;2022-08-19T05:44:36;33.58;;;27.25;;
32321;SDS011;61553;48.994;8.940;2022-08-19T05:47:05;29.10;;;24.70;;
32321;SDS011;61553;48.994;8.940;2022-08-19T05:49:33;32.38;;;26.33;;
32321;SDS011;61553;48.994;8.940;2022-08-19T05:52:01;34.28;;;26.73;;
32321;SDS011;61553;48.994;8.940;2022-08-19T05:54:29;33.10;;;26.35;;
32321;SDS011;61553;48.994;8.940;2022-08-19T05:56:55;32.90;;;26.48;;
32321;SDS011;61553;48.994;8.940;2022-08-19T05:59:21;32.40;;;26.58;;
32321;SDS011;61553;48.994;8.940;2022-08-19T06:01:49;31.75;;;25.98;;
32321;SDS011;61553;48.994;8.940;2022-08-19T06:04:16;31.50;;;25.20;;
32321;SDS011;61553;48.994;8.940;2022-08-19T06:06:44;30.50;;;26.35;;
32321;SDS011;61553;48.994;8.940;2022-08-19T06:09:11;30.63;;;24.55;;
32321;SDS011;61553;48.994;8.940;2022-08-19T06:14:13;30.52;;;25.05;;
32321;SDS011;61553;48.994;8.940;2022-08-19T06:16:44;31.73;;;26.38;;
32321;SDS011;61553;48.994;8.940;2022-08-19T06:19:12;35.33;;;25.45;;
32321;SDS011;61553;48.994;8.940;2022-08-19T06:21:40;31.48;;;24.77;;
32321;SDS011;61553;48.994;8.940;2022-08-19T06:24:10;31.25;;;24.77;;
32321;SDS011;61553;48.994;8.940;2022-08-19T06:26:39;26.90;;;23.50;;
32321;SDS011;61553;48.994;8.940;2022-08-19T06:29:07;28.17;;;23.58;;
32321;SDS011;61553;48.994;8.940;2022-08-19T06:31:35;28.52;;;24.50;;
32321;SDS011;61553;48.994;8.940;2022-08-19T06:34:02;27.48;;;23.55;;
32321;SDS011;61553;48.994;8.940;2022-08-19T06:36:30;29.58;;;24.35;;
32321;SDS011;61553;48.994;8.940;2022-08-19T06:39:02;27.33;;;23.33;;
32321;SDS011;61553;48.994;8.940;2022-08-19T06:41:37;30.35;;;23.90;;
32321;SDS011;61553;48.994;8.940;2022-08-19T06:44:04;26.38;;;23.15;;
32321;SDS011;61553;48.994;8.940;2022-08-19T06:46:30;27.73;;;23.63;;
32321;SDS011;61553;48.994;8.940;2022-08-19T06:48:56;28.05;;;23.02;;
32321;SDS011;61553;48.994;8.940;2022-08-19T06:51:23;27.50;;;23.33;;
32321;SDS011;61553;48.994;8.940;2022-08-19T06:53:50;29.70;;;23.63;;
32321;SDS011;61553;48.994;8.940;2022-08-19T06:56:18;29.17;;;22.98;;
32321;SDS011;61553;48.994;8.940;2022-08-19T06:58:47;26.63;;;22.48;;
32321;SDS011;61553;48.994;8.940;2022-08-19T07:01:16;30.50;;;23.30;;
32321;SDS011;61553;48.994;8.940;2022-08-19T07:03:42;24.85;;;20.67;;
32321;SDS011;61553;48.994;8.940;2022-08-19T07:06:09;26.10;;;22.10;;
32321;SDS011;61553;48.994;8.940;2022-08-19T07:08:39;28.65;;;21.00;;
32321;SDS011;61553;48.994;8.940;2022-08-19T07:11:09;34.75;;;22.58;;
32321;SDS011;61553;48.994;8.940;2022-08-19T07:13:38;24.63;;;21.30;;
32321;SDS011;61553;48.994;8.940;2022-08-19T07:18:35;28.52;;;22.35;;
32321;SDS011;61553;48.994;8.940;2022-08-19T07:23:38;24.58;;;20.65;;
32321;SDS011;61553;48.994;8.940;2022-08-19T07:26:07;25.90;;;21.02;;
32321;SDS011;61553;48.994;8.940;2022-08-19T07:28:38;25.27;;;21.20;;
32321;SDS011;61553;48.994;8.940;2022-08-19T07:31:07;24.38;;;20.42;;
32321;SDS011;61553;48.994;8.940;2022-08-19T07:33:34;25.50;;;21.08;;
32321;SDS011;61553;48.994;8.940;2022-08-19T07:36:02;27.50;;;20.02;;
32321;SDS011;61553;48.994;8.940;2022-08-19T07:38:30;23.63;;;19.30;;
32321;SDS011;61553;48.994;8.940;2022-08-19T07:40:57;22.60;;;20.08;;
32321;SDS011;61553;48.994;8.940;2022-08-19T07:43:23;24.20;;;19.65;;
32321;SDS011;61553;48.994;8.940;2022-08-19T07:45:53;24.13;;;19.95;;
32321;SDS011;61553;48.994;8.940;2022-08-19T07:48:23;24.38;;;20.98;;
32321;SDS011;61553;48.994;8.940;2022-08-19T07:50:53;24.20;;;19.50;;
32321;SDS011;61553;48.994;8.940;2022-08-19T07:53:23;26.05;;;20.02;;
32321;SDS011;61553;48.994;8.940;2022-08-19T07:55:49;23.73;;;19.17;;
32321;SDS011;61553;48.994;8.940;2022-08-19T07:58:17;21.67;;;18.83;;
32321;SDS011;61553;48.994;8.940;2022-08-19T08:00:45;23.58;;;18.80;;
32321;SDS011;61553;48.994;8.940;2022-08-19T08:03:12;20.52;;;18.20;;
32321;SDS011;61553;48.994;8.940;2022-08-19T08:05:40;24.13;;;18.63;;
32321;SDS011;61553;48.994;8.940;2022-08-19T08:08:24;19.00;;;16.80;;
32321;SDS011;61553;48.994;8.940;2022-08-19T08:11:08;22.13;;;17.63;;
32321;SDS011;61553;48.994;8.940;2022-08-19T08:13:35;19.92;;;17.58;;
32321;SDS011;61553;48.994;8.940;2022-08-19T08:16:02;20.25;;;17.38;;
32321;SDS011;61553;48.994;8.940;2022-08-19T08:18:28;21.48;;;16.27;;
32321;SDS011;61553;48.994;8.940;2022-08-19T08:20:54;25.33;;;18.48;;
32321;SDS011;61553;48.994;8.940;2022-08-19T08:23:21;20.98;;;16.70;;
32321;SDS011;61553;48.994;8.940;2022-08-19T08:25:48;20.95;;;16.30;;
32321;SDS011;61553;48.994;8.940;2022-08-19T08:28:14;18.48;;;15.38;;
32321;SDS011;61553;48.994;8.940;2022-08-19T08:30:41;22.33;;;16.30;;
32321;SDS011;61553;48.994;8.940;2022-08-19T08:33:08;20.05;;;16.08;;
32321;SDS011;61553;48.994;8.940;2022-08-19T08:35:34;18.40;;;16.42;;
32321;SDS011;61553;48.994;8.940;2022-08-19T08:38:00;19.42;;;15.55;;
32321;SDS011;61553;48.994;8.940;2022-08-19T08:40:39;19.83;;;15.85;;
32321;SDS011;61553;48.994;8.940;2022-08-19T08:48:32;19.85;;;16.75;;
32321;SDS011;61553;48.994;8.940;2022-08-19T08:51:15;22.77;;;17.38;;
32321;SDS011;61553;48.994;8.940;2022-08-19T08:53:49;20.30;;;14.85;;
32321;SDS011;61553;48.994;8.940;2022-08-19T08:56:16;21.88;;;14.48;;
32321;SDS011;61553;48.994;8.940;2022-08-19T08:58:46;18.23;;;13.40;;
32321;SDS011;61553;48.994;8.940;2022-08-19T09:01:17;16.83;;;14.48;;
32321;SDS011;61553;48.994;8.940;2022-08-19T09:03:42;18.48;;;13.18;;
32321;SDS011;61553;48.994;8.940;2022-08-19T09:17:25;16.80;;;12.57;;
32321;SDS011;61553;48.994;8.940;2022-08-19T09:22:31;14.75;;;11.93;;
32321;SDS011;61553;48.994;8.940;2022-08-19T09:24:57;17.35;;;13.10;;
32321;SDS011;61553;48.994;8.940;2022-08-19T09:27:23;17.85;;;12.73;;
32321;SDS011;61553;48.994;8.940;2022-08-19T09:29:51;12.25;;;10.57;;
32321;SDS011;61553;48.994;8.940;2022-08-19T09:32:17;17.05;;;11.93;;
32321;SDS011;61553;48.994;8.940;2022-08-19T09:34:43;18.17;;;12.63;;
32321;SDS011;61553;48.994;8.940;2022-08-19T09:37:09;16.77;;;11.70;;
32321;SDS011;61553;48.994;8.940;2022-08-19T09:39:35;16.88;;;12.20;;
32321;SDS011;61553;48.994;8.940;2022-08-19T09:42:02;16.10;;;12.45;;
32321;SDS011;61553;48.994;8.940;2022-08-19T09:44:28;17.17;;;12.52;;
32321;SDS011;61553;48.994;8.940;2022-08-19T09:46:54;19.05;;;12.90;;
32321;SDS011;61553;48.994;8.940;2022-08-19T09:49:21;15.82;;;12.60;;
32321;SDS011;61553;48.994;8.940;2022-08-19T09:51:53;14.90;;;11.30;;
32321;SDS011;61553;48.994;8.940;2022-08-19T09:54:20;16.83;;;11.73;;
32321;SDS011;61553;48.994;8.940;2022-08-19T09:56:47;14.15;;;10.65;;
32321;SDS011;61553;48.994;8.940;2022-08-19T09:59:13;15.95;;;10.75;;
32321;SDS011;61553;48.994;8.940;2022-08-19T10:01:39;12.95;;;10.75;;
32321;SDS011;61553;48.994;8.940;2022-08-19T10:04:05;12.50;;;10.48;;
32321;SDS011;61553;48.994;8.940;2022-08-19T10:06:34;14.23;;;10.48;;
32321;SDS011;61553;48.994;8.940;2022-08-19T10:09:02;11.63;;;10.13;;
32321;SDS011;61553;48.994;8.940;2022-08-19T10:11:30;13.10;;;9.68;;
32321;SDS011;61553;48.994;8.940;2022-08-19T10:13:57;12.35;;;9.45;;
32321;SDS011;61553;48.994;8.940;2022-08-19T10:16:23;11.52;;;9.10;;
32321;SDS011;61553;48.994;8.940;2022-08-19T10:18:50;10.73;;;9.10;;
32321;SDS011;61553;48.994;8.940;2022-08-19T10:21:24;11.65;;;9.70;;
32321;SDS011;61553;48.994;8.940;2022-08-19T10:23:53;10.05;;;8.93;;
32321;SDS011;61553;48.994;8.940;2022-08-19T10:26:23;12.40;;;9.40;;
32321;SDS011;61553;48.994;8.940;2022-08-19T10:28:51;10.63;;;8.65;;
32321;SDS011;61553;48.994;8.940;2022-08-19T10:31:21;12.27;;;9.18;;
32321;SDS011;61553;48.994;8.940;2022-08-19T10:33:51;13.98;;;8.98;;
32321;SDS011;61553;48.994;8.940;2022-08-19T10:36:22;10.38;;;8.27;;
32321;SDS011;61553;48.994;8.940;2022-08-19T10:38:54;11.75;;;8.05;;
32321;SDS011;61553;48.994;8.940;2022-08-19T10:41:25;10.05;;;7.45;;
32321;SDS011;61553;48.994;8.940;2022-08-19T10:43:53;10.88;;;8.68;;
32321;SDS011;61553;48.994;8.940;2022-08-19T10:46:22;8.85;;;7.38;;
32321;SDS011;61553;48.994;8.940;2022-08-19T10:48:49;14.07;;;8.18;;
32321;SDS011;61553;48.994;8.940;2022-08-19T10:51:15;9.73;;;7.30;;
32321;SDS011;61553;48.994;8.940;2022-08-19T10:54:00;9.63;;;7.28;;
32321;SDS011;61553;48.994;8.940;2022-08-19T10:56:26;10.07;;;7.80;;
32321;SDS011;61553;48.994;8.940;2022-08-19T10:59:11;8.50;;;7.25;;
32321;SDS011;61553;48.994;8.940;2022-08-19T11:01:38;11.38;;;6.82;;
32321;SDS011;61553;48.994;8.940;2022-08-19T11:04:05;9.88;;;6.85;;
32321;SDS011;61553;48.994;8.940;2022-08-19T11:06:35;7.93;;;6.15;;
32321;SDS011;61553;48.994;8.940;2022-08-19T11:09:02;9.35;;;6.35;;
32321;SDS011;61553;48.994;8.940;2022-08-19T11:11:28;6.07;;;5.38;;
32321;SDS011;61553;48.994;8.940;2022-08-19T11:13:53;9.93;;;6.53;;
32321;SDS011;61553;48.994;8.940;2022-08-19T11:16:21;8.82;;;6.40;;
32321;SDS011;61553;48.994;8.940;2022-08-19T11:18:50;7.72;;;6.22;;
32321;SDS011;61553;48.994;8.940;2022-08-19T11:23:47;7.15;;;5.90;;
32321;SDS011;61553;48.994;8.940;2022-08-19T11:26:14;7.47;;;6.43;;
32321;SDS011;61553;48.994;8.940;2022-08-19T11:28:41;8.27;;;6.10;;
32321;SDS011;61553;48.994;8.940;2022-08-19T11:31:15;7.57;;;5.90;;
32321;SDS011;61553;48.994;8.940;2022-08-19T11:33:42;11.48;;;6.18;;
32321;SDS011;61553;48.994;8.940;2022-08-19T11:36:08;7.43;;;4.93;;
32321;SDS011;61553;48.994;8.940;2022-08-19T11:38:35;7.80;;;5.75;;
32321;SDS011;61553;48.994;8.940;2022-08-19T11:41:03;7.35;;;5.55;;
32321;SDS011;61553;48.994;8.940;2022-08-19T11:43:31;7.15;;;5.32;;
32321;SDS011;61553;48.994;8.940;2022-08-19T11:45:58;6.30;;;5.32;;
32321;SDS011;61553;48.994;8.940;2022-08-19T11:48:24;8.40;;;5.13;;
32321;SDS011;61553;48.994;8.940;2022-08-19T11:50:53;8.63;;;4.90;;
32321;SDS011;61553;48.994;8.940;2022-08-19T11:53:21;6.75;;;5.57;;
32321;SDS011;61553;48.994;8.940;2022-08-19T11:55:48;6.35;;;5.15;;
32321;SDS011;61553;48.994;8.940;2022-08-19T11:58:15;5.35;;;4.65;;
32321;SDS011;61553;48.994;8.940;2022-08-19T12:00:42;7.82;;;5.25;;
32321;SDS011;61553;48.994;8.940;2022-08-19T12:03:10;6.97;;;5.15;;
32321;SDS011;61553;48.994;8.940;2022-08-19T12:05:37;6.85;;;4.82;;
32321;SDS011;61553;48.994;8.940;2022-08-19T12:08:05;8.27;;;5.70;;
32321;SDS011;61553;48.994;8.940;2022-08-19T12:10:32;10.30;;;6.07;;
32321;SDS011;61553;48.994;8.940;2022-08-19T12:12:58;9.23;;;6.47;;
32321;SDS011;61553;48.994;8.940;2022-08-19T12:15:24;6.65;;;5.25;;
32321;SDS011;61553;48.994;8.940;2022-08-19T12:17:50;6.55;;;5.65;;
32321;SDS011;61553;48.994;8.940;2022-08-19T12:20:15;11.93;;;6.00;;
32321;SDS011;61553;48.994;8.940;2022-08-19T12:22:42;7.25;;;5.47;;
32321;SDS011;61553;48.994;8.940;2022-08-19T12:25:11;6.57;;;5.38;;
32321;SDS011;61553;48.994;8.940;2022-08-19T12:27:37;8.38;;;5.40;;
32321;SDS011;61553;48.994;8.940;2022-08-19T12:30:04;7.78;;;5.80;;
32321;SDS011;61553;48.994;8.940;2022-08-19T12:32:31;12.52;;;5.80;;
32321;SDS011;61553;48.994;8.940;2022-08-19T12:34:57;8.38;;;5.97;;
32321;SDS011;61553;48.994;8.940;2022-08-19T12:37:23;7.38;;;5.43;;
32321;SDS011;61553;48.994;8.940;2022-08-19T12:39:48;6.35;;;5.10;;
32321;SDS011;61553;48.994;8.940;2022-08-19T12:42:14;8.93;;;5.63;;
32321;SDS011;61553;48.994;8.940;2022-08-19T12:44:41;8.65;;;5.72;;
32321;SDS011;61553;48.994;8.940;2022-08-19T12:47:08;9.80;;;6.47;;
32321;SDS011;61553;48.994;8.940;2022-08-19T12:49:35;10.82;;;6.38;;
32321;SDS011;61553;48.994;8.940;2022-08-19T12:52:02;12.85;;;6.80;;
32321;SDS011;61553;48.994;8.940;2022-08-19T12:54:29;9.30;;;6.20;;
32321;SDS011;61553;48.994;8.940;2022-08-19T12:56:56;8.38;;;6.80;;
32321;SDS011;61553;48.994;8.940;2022-08-19T12:59:22;7.80;;;6.22;;
32321;SDS011;61553;48.994;8.940;2022-08-19T13:01:47;7.30;;;5.90;;
32321;SDS011;61553;48.994;8.940;2022-08-19T13:04:13;7.05;;;6.10;;
32321;SDS011;61553;48.994;8.940;2022-08-19T13:06:40;8.82;;;6.55;;
32321;SDS011;61553;48.994;8.940;2022-08-19T13:09:06;8.80;;;6.65;;
32321;SDS011;61553;48.994;8.940;2022-08-19T13:11:31;8.95;;;6.57;;
32321;SDS011;61553;48.994;8.940;2022-08-19T13:13:58;9.93;;;6.20;;
32321;SDS011;61553;48.994;8.940;2022-08-19T13:16:25;7.80;;;6.80;;
32321;SDS011;61553;48.994;8.940;2022-08-19T13:18:52;9.68;;;5.82;;
32321;SDS011;61553;48.994;8.940;2022-08-19T13:21:21;7.30;;;6.40;;
32321;SDS011;61553;48.994;8.940;2022-08-19T13:23:50;9.52;;;6.72;;
32321;SDS011;61553;48.994;8.940;2022-08-19T13:26:16;8.90;;;7.35;;
32321;SDS011;61553;48.994;8.940;2022-08-19T13:28:43;8.25;;;6.90;;
32321;SDS011;61553;48.994;8.940;2022-08-19T13:31:30;10.13;;;7.38;;
32321;SDS011;61553;48.994;8.940;2022-08-19T13:34:17;10.30;;;7.20;;
32321;SDS011;61553;48.994;8.940;2022-08-19T13:36:46;11.05;;;6.70;;
32321;SDS011;61553;48.994;8.940;2022-08-19T13:39:12;8.30;;;6.80;;
32321;SDS011;61553;48.994;8.940;2022-08-19T13:41:42;11.25;;;6.82;;
32321;SDS011;61553;48.994;8.940;2022-08-19T13:44:12;7.20;;;6.20;;
32321;SDS011;61553;48.994;8.940;2022-08-19T13:46:40;6.97;;;5.93;;
32321;SDS011;61553;48.994;8.940;2022-08-19T13:49:09;7.40;;;6.15;;
32321;SDS011;61553;48.994;8.940;2022-08-19T13:51:39;8.85;;;5.80;;
32321;SDS011;61553;48.994;8.940;2022-08-19T13:54:06;7.03;;;6.25;;
32321;SDS011;61553;48.994;8.940;2022-08-19T13:56:33;6.55;;;5.55;;
32321;SDS011;61553;48.994;8.940;2022-08-19T13:59:00;6.53;;;5.63;;
32321;SDS011;61553;48.994;8.940;2022-08-19T14:01:26;7.53;;;5.78;;
32321;SDS011;61553;48.994;8.940;2022-08-19T14:03:52;7.35;;;6.05;;
32321;SDS011;61553;48.994;8.940;2022-08-19T14:06:18;6.10;;;5.50;;
32321;SDS011;61553;48.994;8.940;2022-08-19T14:08:44;6.32;;;5.65;;
32321;SDS011;61553;48.994;8.940;2022-08-19T14:11:10;7.60;;;5.35;;
32321;SDS011;61553;48.994;8.940;2022-08-19T14:13:36;6.88;;;5.35;;
32321;SDS011;61553;48.994;8.940;2022-08-19T14:16:06;8.30;;;5.95;;
32321;SDS011;61553;48.994;8.940;2022-08-19T14:18:32;6.65;;;5.88;;
32321;SDS011;61553;48.994;8.940;2022-08-19T14:20:58;6.97;;;5.38;;
32321;SDS011;61553;48.994;8.940;2022-08-19T14:23:23;6.50;;;5.13;;
32321;SDS011;61553;48.994;8.940;2022-08-19T14:25:49;6.28;;;5.18;;
32321;SDS011;61553;48.994;8.940;2022-08-19T14:28:15;5.88;;;5.15;;
32321;SDS011;61553;48.994;8.940;2022-08-19T14:30:41;5.38;;;4.78;;
32321;SDS011;61553;48.994;8.940;2022-08-19T14:33:09;5.72;;;4.50;;
32321;SDS011;61553;48.994;8.940;2022-08-19T14:35:35;5.28;;;4.40;;
32321;SDS011;61553;48.994;8.940;2022-08-19T14:38:04;6.60;;;4.90;;
32321;SDS011;61553;48.994;8.940;2022-08-19T14:40:31;8.65;;;4.80;;
32321;SDS011;61553;48.994;8.940;2022-08-19T14:42:58;6.65;;;4.32;;
32321;SDS011;61553;48.994;8.940;2022-08-19T14:45:29;6.10;;;4.30;;
32321;SDS011;61553;48.994;8.940;2022-08-19T14:47:57;7.75;;;4.40;;
32321;SDS011;61553;48.994;8.940;2022-08-19T14:50:25;4.78;;;3.70;;
32321;SDS011;61553;48.994;8.940;2022-08-19T14:52:57;5.43;;;4.13;;
32321;SDS011;61553;48.994;8.940;2022-08-19T14:55:28;5.93;;;4.20;;
32321;SDS011;61553;48.994;8.940;2022-08-19T14:57:54;6.05;;;3.90;;
32321;SDS011;61553;48.994;8.940;2022-08-19T15:00:20;5.60;;;4.07;;
32321;SDS011;61553;48.994;8.940;2022-08-19T15:02:48;5.15;;;3.80;;